createdAt,value
2019-02-25T00:00:12.235Z,8.03
2019-02-25T00:02:41.083Z,8.50
2019-02-25T00:05:09.908Z,7.83
2019-02-25T00:07:38.702Z,7.90
2019-02-25T00:10:07.811Z,8.30
2019-02-25T00:12:36.743Z,7.43
2019-02-25T00:15:05.765Z,8.13
2019-02-25T00:17:34.531Z,7.83
2019-02-25T00:20:03.344Z,7.40
2019-02-25T00:22:32.130Z,7.87
2019-02-25T00:25:00.977Z,7.73
2019-02-25T00:27:29.766Z,8.10
2019-02-25T00:29:58.572Z,8.07
2019-02-25T00:32:27.377Z,7.87
2019-02-25T00:34:56.191Z,8.50
2019-02-25T00:37:24.961Z,8.40
2019-02-25T00:39:53.769Z,7.93
2019-02-25T00:42:22.685Z,8.53
2019-02-25T00:44:51.536Z,8.90
2019-02-25T00:47:20.613Z,8.43
2019-02-25T00:49:49.458Z,8.63
2019-02-25T00:52:18.298Z,7.80
2019-02-25T00:54:47.068Z,7.87
2019-02-25T00:57:16.675Z,8.03
2019-02-25T00:59:45.520Z,8.10
2019-02-25T01:02:14.307Z,8.10
2019-02-25T01:04:43.114Z,7.63
2019-02-25T01:07:11.951Z,7.70
2019-02-25T01:09:40.886Z,8.07
2019-02-25T01:12:10.564Z,8.40
2019-02-25T01:14:39.434Z,7.97
2019-02-25T01:17:08.240Z,8.63
2019-02-25T01:19:37.052Z,8.10
2019-02-25T01:22:05.915Z,7.50
2019-02-25T01:24:34.874Z,7.63
2019-02-25T01:27:04.571Z,7.80
2019-02-25T01:29:33.443Z,7.63
2019-02-25T01:32:02.341Z,7.97
2019-02-25T01:34:31.163Z,7.73
2019-02-25T01:37:00.047Z,7.90
2019-02-25T01:39:28.831Z,7.80
2019-02-25T01:41:57.701Z,7.80
2019-02-25T01:44:26.466Z,8.13
2019-02-25T01:46:55.479Z,8.00
2019-02-25T01:49:24.304Z,8.00
2019-02-25T01:51:53.054Z,9.00
2019-02-25T01:54:22.025Z,8.17
2019-02-25T01:56:50.977Z,8.03
2019-02-25T01:59:19.771Z,8.63
2019-02-25T02:01:48.727Z,8.67
2019-02-25T02:04:17.552Z,7.90
2019-02-25T02:06:46.990Z,7.40
2019-02-25T02:09:15.791Z,7.80
2019-02-25T02:11:44.609Z,7.90
2019-02-25T02:14:13.480Z,7.60
2019-02-25T02:16:42.286Z,7.47
2019-02-25T02:19:11.063Z,8.27
2019-02-25T02:21:39.934Z,8.20
2019-02-25T02:24:08.728Z,7.90
2019-02-25T02:26:37.543Z,8.67
2019-02-25T02:29:06.382Z,8.10
2019-02-25T02:31:35.454Z,7.87
2019-02-25T02:34:04.216Z,8.53
2019-02-25T02:36:33.355Z,8.80
2019-02-25T02:39:02.438Z,8.13
2019-02-25T02:41:50.415Z,8.85
2019-02-25T02:44:19.211Z,9.03
2019-02-25T02:47:06.090Z,8.60
2019-02-25T02:49:35.372Z,8.43
2019-02-25T02:52:04.407Z,9.03
2019-02-25T02:54:33.166Z,8.40
2019-02-25T02:57:02.096Z,8.50
2019-02-25T02:59:30.906Z,8.57
2019-02-25T03:01:59.703Z,8.40
2019-02-25T03:04:28.711Z,7.73
2019-02-25T03:06:59.289Z,8.33
2019-02-25T03:09:28.083Z,8.70
2019-02-25T03:11:57.068Z,9.17
2019-02-25T03:14:25.876Z,9.47
2019-02-25T03:16:54.711Z,8.70
2019-02-25T03:19:23.476Z,9.17
2019-02-25T03:21:52.535Z,9.57
2019-02-25T03:24:21.323Z,8.07
2019-02-25T03:26:50.123Z,8.97
2019-02-25T03:29:18.880Z,9.23
2019-02-25T03:31:47.993Z,9.00
2019-02-25T03:34:16.801Z,9.20
2019-02-25T03:36:45.591Z,9.47
2019-02-25T03:39:15.075Z,9.60
2019-02-25T03:41:43.906Z,9.67
2019-02-25T03:44:13.825Z,9.17
2019-02-25T03:46:42.858Z,9.03
2019-02-25T03:49:11.650Z,8.20
2019-02-25T03:51:40.580Z,9.17
2019-02-25T03:54:09.356Z,9.50
2019-02-25T03:56:38.323Z,9.23
2019-02-25T03:59:07.111Z,9.53
2019-02-25T04:01:35.930Z,9.53
2019-02-25T04:04:05.007Z,9.17
2019-02-25T04:06:33.789Z,9.50
2019-02-25T04:09:02.582Z,9.33
2019-02-25T04:11:31.590Z,9.97
2019-02-25T04:14:00.387Z,10.17
2019-02-25T04:16:29.257Z,9.70
2019-02-25T04:18:58.075Z,9.37
2019-02-25T04:21:26.862Z,10.13
2019-02-25T04:23:55.647Z,9.00
2019-02-25T04:26:24.433Z,9.63
2019-02-25T04:28:53.230Z,10.10
2019-02-25T04:31:22.003Z,9.10
2019-02-25T04:33:51.275Z,10.40
2019-02-25T04:36:20.040Z,9.63
2019-02-25T04:38:48.852Z,8.97
2019-02-25T04:41:17.683Z,9.63
2019-02-25T04:43:46.551Z,13.50
2019-02-25T04:46:15.483Z,11.57
2019-02-25T04:48:44.308Z,9.97
2019-02-25T04:51:13.105Z,10.40
2019-02-25T04:53:42.009Z,10.47
2019-02-25T04:56:11.049Z,9.40
2019-02-25T04:58:39.823Z,9.97
2019-02-25T05:01:09.037Z,9.97
2019-02-25T05:03:37.810Z,10.73
2019-02-25T05:06:06.674Z,9.97
2019-02-25T05:08:35.520Z,10.30
2019-02-25T05:11:04.539Z,10.17
2019-02-25T05:13:33.311Z,9.97
2019-02-25T05:16:02.270Z,9.90
2019-02-25T05:18:31.179Z,10.77
2019-02-25T05:20:59.976Z,10.10
2019-02-25T05:23:29.001Z,10.43
2019-02-25T05:25:58.319Z,9.70
2019-02-25T05:28:27.046Z,10.07
2019-02-25T05:30:55.853Z,10.60
2019-02-25T05:33:24.612Z,11.40
2019-02-25T05:35:53.503Z,10.73
2019-02-25T05:38:22.311Z,11.03
2019-02-25T05:40:51.156Z,10.97
2019-02-25T05:43:19.959Z,11.10
2019-02-25T05:45:48.709Z,10.60
2019-02-25T05:48:17.574Z,10.97
2019-02-25T05:50:46.441Z,11.30
2019-02-25T05:53:15.971Z,10.53
2019-02-25T05:55:44.859Z,10.73
2019-02-25T05:58:14.076Z,10.00
2019-02-25T06:00:43.293Z,10.43
2019-02-25T06:03:12.254Z,10.87
2019-02-25T06:05:41.873Z,10.93
2019-02-25T06:08:10.759Z,11.43
2019-02-25T06:10:39.609Z,11.33
2019-02-25T06:13:08.546Z,10.83
2019-02-25T06:15:37.574Z,11.20
2019-02-25T06:18:06.378Z,11.30
2019-02-25T06:20:35.168Z,11.67
2019-02-25T06:23:04.513Z,11.50
2019-02-25T06:25:33.371Z,11.93
2019-02-25T06:28:02.198Z,11.67
2019-02-25T06:30:31.116Z,11.10
2019-02-25T06:33:00.055Z,11.53
2019-02-25T06:35:28.907Z,12.07
2019-02-25T06:37:57.746Z,11.50
2019-02-25T06:40:26.714Z,12.27
2019-02-25T06:42:55.814Z,11.53
2019-02-25T06:45:24.578Z,11.47
2019-02-25T06:47:53.601Z,11.97
2019-02-25T06:50:22.460Z,11.70
2019-02-25T06:52:51.259Z,13.57
2019-02-25T06:55:20.196Z,11.63
2019-02-25T06:57:49.184Z,13.27
2019-02-25T07:00:18.623Z,12.90
2019-02-25T07:02:47.454Z,13.20
2019-02-25T07:05:31.335Z,13.90
2019-02-25T07:08:19.481Z,41.40
2019-02-25T07:11:07.328Z,15.13
2019-02-25T07:14:13.619Z,13.00
2019-02-25T07:17:04.410Z,12.20
2019-02-25T07:19:55.919Z,13.23
2019-02-25T07:22:49.552Z,12.03
2019-02-25T07:25:26.929Z,13.20
2019-02-25T07:28:13.565Z,13.43
2019-02-25T07:31:07.568Z,12.67
2019-02-25T07:33:58.175Z,13.43
2019-02-25T07:36:49.115Z,13.83
2019-02-25T07:39:40.071Z,12.27
2019-02-25T07:42:14.242Z,13.00
2019-02-25T07:45:05.029Z,12.87
2019-02-25T07:47:51.283Z,13.73
2019-02-25T07:50:47.356Z,13.43
2019-02-25T07:53:21.734Z,12.60
2019-02-25T07:56:08.384Z,12.70
2019-02-25T07:59:01.291Z,12.77
2019-02-25T08:01:52.142Z,12.30
2019-02-25T08:04:29.340Z,13.00
2019-02-25T08:07:20.283Z,13.73
2019-02-25T08:10:10.931Z,14.37
2019-02-25T08:12:47.670Z,13.93
2019-02-25T08:15:30.961Z,13.33
2019-02-25T08:18:37.118Z,14.17
2019-02-25T08:21:30.906Z,13.13
2019-02-25T08:24:30.536Z,13.20
2019-02-25T08:27:16.506Z,13.90
2019-02-25T08:29:56.379Z,13.30
2019-02-25T08:32:36.094Z,12.93
2019-02-25T08:35:23.399Z,13.40
2019-02-25T08:38:00.128Z,13.07
2019-02-25T08:40:52.601Z,12.90
2019-02-25T08:43:43.441Z,12.53
2019-02-25T08:46:21.513Z,13.17
2019-02-25T08:48:54.294Z,14.20
2019-02-25T08:51:23.095Z,13.57
2019-02-25T08:53:52.454Z,12.63
2019-02-25T08:56:21.271Z,13.33
2019-02-25T08:58:50.089Z,14.43
2019-02-25T09:01:18.980Z,13.97
2019-02-25T09:03:47.737Z,13.33
2019-02-25T09:06:16.529Z,14.07
2019-02-25T09:08:45.376Z,13.43
2019-02-25T09:11:14.635Z,13.17
2019-02-25T09:13:43.493Z,13.40
2019-02-25T09:16:14.043Z,12.13
2019-02-25T09:18:42.994Z,13.10
2019-02-25T09:21:11.932Z,13.77
2019-02-25T09:23:40.896Z,13.25
2019-02-25T09:26:11.845Z,13.13
2019-02-25T09:28:40.354Z,13.63
2019-02-25T09:31:09.149Z,13.97
2019-02-25T09:33:38.077Z,13.60
2019-02-25T09:36:06.868Z,14.27
2019-02-25T09:38:35.801Z,14.63
2019-02-25T09:41:04.602Z,14.10
2019-02-25T09:43:33.356Z,13.57
2019-02-25T09:46:02.198Z,13.93
2019-02-25T09:48:30.951Z,13.90
2019-02-25T09:50:59.917Z,15.27
2019-02-25T09:53:28.759Z,16.00
2019-02-25T09:55:57.587Z,15.13
2019-02-25T09:58:26.548Z,16.23
2019-02-25T10:00:55.362Z,15.53
2019-02-25T10:03:24.220Z,16.80
2019-02-25T10:05:53.024Z,15.37
2019-02-25T10:08:21.866Z,15.90
2019-02-25T10:10:50.937Z,15.83
2019-02-25T10:13:19.752Z,14.53
2019-02-25T10:15:48.525Z,14.23
2019-02-25T10:18:17.325Z,13.77
2019-02-25T10:20:46.089Z,14.43
2019-02-25T10:23:15.182Z,13.43
2019-02-25T10:25:44.076Z,14.63
2019-02-25T10:28:12.906Z,12.37
2019-02-25T10:30:41.676Z,13.30
2019-02-25T10:33:10.616Z,13.07
2019-02-25T10:35:39.629Z,12.63
2019-02-25T10:38:08.463Z,12.07
2019-02-25T10:40:37.269Z,11.53
2019-02-25T10:43:06.216Z,11.40
2019-02-25T10:45:37.200Z,10.90
2019-02-25T10:48:06.170Z,10.30
2019-02-25T10:50:36.017Z,10.97
2019-02-25T10:53:05.529Z,10.83
2019-02-25T10:55:36.088Z,10.82
2019-02-25T10:58:05.124Z,10.50
2019-02-25T11:00:35.210Z,10.53
2019-02-25T11:03:04.665Z,9.80
2019-02-25T11:05:33.753Z,9.93
2019-02-25T11:08:05.378Z,8.83
2019-02-25T11:10:37.277Z,9.40
2019-02-25T11:13:06.822Z,10.03
2019-02-25T11:15:37.520Z,9.73
2019-02-25T11:18:09.550Z,10.60
2019-02-25T11:20:38.720Z,9.50
2019-02-25T11:23:09.958Z,9.57
2019-02-25T11:25:39.945Z,9.03
2019-02-25T11:28:22.648Z,10.40
2019-02-25T11:30:42.686Z,9.93
2019-02-25T11:33:12.605Z,8.90
2019-02-25T11:35:43.325Z,9.40
2019-02-25T11:38:13.977Z,9.03
2019-02-25T11:40:43.817Z,9.57
2019-02-25T11:43:16.056Z,9.50
2019-02-25T11:45:45.339Z,8.27
2019-02-25T11:48:15.485Z,8.70
2019-02-25T11:50:45.320Z,8.73
2019-02-25T11:53:15.341Z,8.43
2019-02-25T11:55:44.944Z,9.13
2019-02-25T11:58:14.605Z,9.73
2019-02-25T12:00:44.476Z,9.60
2019-02-25T12:03:13.944Z,9.33
2019-02-25T12:05:44.043Z,9.20
2019-02-25T12:08:13.874Z,8.97
2019-02-25T12:10:43.592Z,8.90
2019-02-25T12:13:12.931Z,9.13
2019-02-25T12:15:42.837Z,7.97
2019-02-25T12:18:12.702Z,7.83
2019-02-25T12:20:41.751Z,8.73
2019-02-25T12:23:10.687Z,7.93
2019-02-25T12:25:39.558Z,8.63
2019-02-25T12:28:08.483Z,8.97
2019-02-25T12:30:37.687Z,8.70
2019-02-25T12:33:06.490Z,8.07
2019-02-25T12:35:35.283Z,9.47
2019-02-25T12:38:04.157Z,7.87
2019-02-25T12:40:33.027Z,7.93
2019-02-25T12:43:02.243Z,9.00
2019-02-25T12:45:31.114Z,8.63
2019-02-25T12:47:59.928Z,8.73
2019-02-25T12:50:28.739Z,9.10
2019-02-25T12:52:57.562Z,9.10
2019-02-25T12:55:27.040Z,9.13
2019-02-25T12:57:55.963Z,9.10
2019-02-25T13:00:24.889Z,9.47
2019-02-25T13:02:54.099Z,8.70
2019-02-25T13:05:23.316Z,9.43
2019-02-25T13:07:52.546Z,9.07
2019-02-25T13:10:21.478Z,9.20
2019-02-25T13:12:51.541Z,9.30
2019-02-25T13:15:21.180Z,9.53
2019-02-25T13:17:50.724Z,8.80
2019-02-25T13:20:19.629Z,9.40
2019-02-25T13:22:48.456Z,9.47
2019-02-25T13:25:18.209Z,17.57
2019-02-25T13:27:47.027Z,50.73
2019-02-25T13:30:15.934Z,20.70
2019-02-25T13:32:44.813Z,11.60
2019-02-25T13:35:13.700Z,11.57
2019-02-25T13:37:42.637Z,10.03
2019-02-25T13:40:11.575Z,10.40
2019-02-25T13:42:40.485Z,9.93
2019-02-25T13:45:10.056Z,11.20
2019-02-25T13:47:39.343Z,10.60
2019-02-25T13:50:09.661Z,9.93
2019-02-25T13:52:48.047Z,9.40
2019-02-25T13:55:09.709Z,9.40
2019-02-25T13:57:38.605Z,10.53
2019-02-25T14:00:17.371Z,10.60
2019-02-25T14:02:46.500Z,9.30
2019-02-25T14:05:15.498Z,10.70
2019-02-25T14:07:44.387Z,10.27
2019-02-25T14:10:13.259Z,9.50
2019-02-25T14:12:42.468Z,10.07
2019-02-25T14:15:13.191Z,10.73
2019-02-25T14:17:42.347Z,10.37
2019-02-25T14:20:12.389Z,10.60
2019-02-25T14:22:41.469Z,9.87
2019-02-25T14:25:12.561Z,9.93
2019-02-25T14:27:41.613Z,10.43
2019-02-25T14:30:12.778Z,10.23
2019-02-25T14:32:41.875Z,9.70
2019-02-25T14:35:10.854Z,10.30
2019-02-25T14:37:40.603Z,9.40
2019-02-25T14:40:14.483Z,10.40
2019-02-25T14:42:44.614Z,10.03
2019-02-25T14:45:11.467Z,10.93
2019-02-25T14:47:42.605Z,10.10
2019-02-25T14:50:13.216Z,10.30
2019-02-25T14:52:42.840Z,9.93
2019-02-25T14:55:14.789Z,10.13
2019-02-25T14:57:44.435Z,10.73
2019-02-25T15:00:15.910Z,9.73
2019-02-25T15:02:45.990Z,9.13
2019-02-25T15:05:17.314Z,9.50
2019-02-25T15:07:46.758Z,10.60
2019-02-25T15:10:17.029Z,9.60
2019-02-25T15:12:46.158Z,9.03
2019-02-25T15:15:15.403Z,9.60
2019-02-25T15:17:53.691Z,9.27
2019-02-25T15:20:24.019Z,10.00
2019-02-25T15:22:53.483Z,9.63
2019-02-25T15:25:22.571Z,9.03
2019-02-25T15:27:51.903Z,11.40
2019-02-25T15:30:22.928Z,9.43
2019-02-25T15:32:55.635Z,9.63
2019-02-25T15:35:26.564Z,10.00
2019-02-25T15:37:55.489Z,9.77
2019-02-25T15:40:25.532Z,10.30
2019-02-25T15:43:05.939Z,9.87
2019-02-25T15:45:37.717Z,11.47
2019-02-25T15:48:07.416Z,10.50
2019-02-25T15:50:36.798Z,10.50
2019-02-25T15:53:07.419Z,10.27
2019-02-25T15:55:36.539Z,10.67
2019-02-25T15:58:06.097Z,10.13
2019-02-25T16:00:36.734Z,11.23
2019-02-25T16:03:08.481Z,10.70
2019-02-25T16:05:38.814Z,10.07
2019-02-25T16:08:08.006Z,10.67
2019-02-25T16:10:37.312Z,9.60
2019-02-25T16:13:11.203Z,10.13
2019-02-25T16:15:36.937Z,9.87
2019-02-25T16:18:05.917Z,9.83
2019-02-25T16:20:34.928Z,10.00
2019-02-25T16:23:05.920Z,10.70
2019-02-25T16:25:35.975Z,10.13
2019-02-25T16:28:06.069Z,9.90
2019-02-25T16:30:35.912Z,9.93
2019-02-25T16:33:05.714Z,10.10
2019-02-25T16:35:37.283Z,10.00
2019-02-25T16:38:07.365Z,9.60
2019-02-25T16:40:42.937Z,10.23
2019-02-25T16:43:12.700Z,10.07
2019-02-25T16:45:44.531Z,10.20
2019-02-25T16:48:13.294Z,10.50
2019-02-25T16:50:45.809Z,10.63
2019-02-25T16:53:15.411Z,11.17
2019-02-25T16:55:45.095Z,10.83
2019-02-25T16:58:15.062Z,10.83
2019-02-25T17:00:44.433Z,11.47
2019-02-25T17:03:15.786Z,12.07
2019-02-25T17:05:47.187Z,11.00
2019-02-25T17:08:19.102Z,9.87
2019-02-25T17:10:49.651Z,11.00
2019-02-25T17:13:20.340Z,10.40
2019-02-25T17:15:49.536Z,11.73
2019-02-25T17:18:18.646Z,11.60
2019-02-25T17:20:49.638Z,14.63
2019-02-25T17:23:18.892Z,14.27
2019-02-25T17:25:48.073Z,13.90
2019-02-25T17:28:19.736Z,12.07
2019-02-25T17:30:49.656Z,11.80
2019-02-25T17:33:18.829Z,14.00
2019-02-25T17:35:49.950Z,12.20
2019-02-25T17:38:20.785Z,11.83
2019-02-25T17:40:50.275Z,11.10
2019-02-25T17:43:20.305Z,14.73
2019-02-25T17:45:49.300Z,15.30
2019-02-25T17:48:20.931Z,14.07
2019-02-25T17:50:49.151Z,13.80
2019-02-25T17:53:18.329Z,14.40
2019-02-25T17:55:48.955Z,15.17
2019-02-25T17:58:19.797Z,13.57
2019-02-25T18:00:49.525Z,13.97
2019-02-25T18:03:19.557Z,13.87
2019-02-25T18:05:49.670Z,14.77
2019-02-25T18:08:19.018Z,14.13
2019-02-25T18:10:49.691Z,12.67
2019-02-25T18:13:18.989Z,12.67
2019-02-25T18:15:49.866Z,13.70
2019-02-25T18:18:20.299Z,13.07
2019-02-25T18:20:52.831Z,12.90
2019-02-25T18:23:21.766Z,13.10
2019-02-25T18:25:53.145Z,13.77
2019-02-25T18:28:22.544Z,13.23
2019-02-25T18:30:53.235Z,13.03
2019-02-25T18:33:24.715Z,13.77
2019-02-25T18:35:53.529Z,12.90
2019-02-25T18:38:23.300Z,11.53
2019-02-25T18:40:53.847Z,13.20
2019-02-25T18:43:24.310Z,13.37
2019-02-25T18:45:56.136Z,13.67
2019-02-25T18:48:26.970Z,12.80
2019-02-25T18:50:58.498Z,12.33
2019-02-25T18:53:27.164Z,13.37
2019-02-25T18:55:56.804Z,13.40
2019-02-25T18:58:25.957Z,12.03
2019-02-25T19:00:57.048Z,11.20
2019-02-25T19:03:28.685Z,12.60
2019-02-25T19:05:59.270Z,12.40
2019-02-25T19:08:29.122Z,13.13
2019-02-25T19:10:59.390Z,12.53
2019-02-25T19:13:29.947Z,12.10
2019-02-25T19:16:01.051Z,12.03
2019-02-25T19:18:32.190Z,12.33
2019-02-25T19:21:02.487Z,11.63
2019-02-25T19:23:35.020Z,11.77
2019-02-25T19:26:04.173Z,14.10
2019-02-25T19:28:33.890Z,13.27
2019-02-25T19:33:42.975Z,13.17
2019-02-25T19:36:12.513Z,12.70
2019-02-25T19:38:43.657Z,14.30
2019-02-25T19:41:15.146Z,13.97
2019-02-25T19:43:43.381Z,15.53
2019-02-25T19:46:12.725Z,14.93
2019-02-25T19:48:42.701Z,14.83
2019-02-25T19:51:12.560Z,15.67
2019-02-25T19:53:42.938Z,15.67
2019-02-25T19:56:12.800Z,15.93
2019-02-25T19:58:42.197Z,16.87
2019-02-25T20:01:11.140Z,17.20
2019-02-25T20:03:42.750Z,16.93
2019-02-25T20:06:16.013Z,17.90
2019-02-25T20:08:43.060Z,16.10
2019-02-25T20:11:12.491Z,16.23
2019-02-25T20:13:43.100Z,17.20
2019-02-25T20:16:15.729Z,16.83
2019-02-25T20:18:43.300Z,17.60
2019-02-25T20:21:12.517Z,17.40
2019-02-25T20:23:41.767Z,16.43
2019-02-25T20:26:13.240Z,16.93
2019-02-25T20:28:43.442Z,17.43
2019-02-25T20:31:14.437Z,16.53
2019-02-25T20:33:43.486Z,16.03
2019-02-25T20:36:12.674Z,15.33
2019-02-25T20:38:41.781Z,17.57
2019-02-25T20:41:10.995Z,16.60
2019-02-25T20:43:40.151Z,15.67
2019-02-25T20:46:11.066Z,15.37
2019-02-25T20:48:44.455Z,16.47
2019-02-25T20:51:12.061Z,15.23
2019-02-25T20:53:41.176Z,15.23
2019-02-25T20:56:11.823Z,15.43
2019-02-25T20:58:42.618Z,14.93
2019-02-25T21:01:12.114Z,14.37
2019-02-25T21:03:45.795Z,14.30
2019-02-25T21:06:14.522Z,14.57
2019-02-25T21:08:45.023Z,15.37
2019-02-25T21:11:15.754Z,14.60
2019-02-25T21:13:45.065Z,15.13
2019-02-25T21:16:16.177Z,15.17
2019-02-25T21:18:46.560Z,15.93
2019-02-25T21:21:16.334Z,15.33
2019-02-25T21:23:51.257Z,15.83
2019-02-25T21:26:20.565Z,15.03
2019-02-25T21:28:49.572Z,14.80
2019-02-25T21:31:20.912Z,14.73
2019-02-25T21:33:50.087Z,15.47
2019-02-25T21:36:20.746Z,14.80
2019-02-25T21:38:51.530Z,14.63
2019-02-25T21:41:21.016Z,14.97
2019-02-25T21:43:51.618Z,14.33
2019-02-25T21:46:22.442Z,14.10
2019-02-25T21:48:54.882Z,13.67
2019-02-25T21:51:21.942Z,13.33
2019-02-25T21:53:53.729Z,14.80
2019-02-25T21:56:24.892Z,14.80
2019-02-25T21:58:54.492Z,15.03
2019-02-25T22:01:23.435Z,14.23
2019-02-25T22:03:54.509Z,14.80
2019-02-25T22:06:24.897Z,15.10
2019-02-25T22:08:54.190Z,14.77
2019-02-25T22:11:24.723Z,14.23
2019-02-25T22:13:53.960Z,14.77
2019-02-25T22:16:23.653Z,14.23
2019-02-25T22:18:54.271Z,14.00
2019-02-25T22:21:24.296Z,14.87
2019-02-25T22:23:56.159Z,14.73
2019-02-25T22:26:26.594Z,14.13
2019-02-25T22:28:55.757Z,13.50
2019-02-25T22:31:25.644Z,14.80
2019-02-25T22:33:55.196Z,14.07
2019-02-25T22:36:25.010Z,12.73
2019-02-25T22:38:56.574Z,13.60
2019-02-25T22:41:25.097Z,13.90
2019-02-25T22:43:55.253Z,13.37
2019-02-25T22:46:28.184Z,12.93
2019-02-25T22:48:55.354Z,13.63
2019-02-25T22:51:25.877Z,14.63
2019-02-25T22:53:54.839Z,14.53
2019-02-25T22:56:27.921Z,13.53
2019-02-25T22:58:56.137Z,13.07
2019-02-25T23:01:25.578Z,14.97
2019-02-25T23:03:55.170Z,12.83
2019-02-25T23:06:25.441Z,13.50
2019-02-25T23:08:56.922Z,13.40
2019-02-25T23:11:26.209Z,13.53
2019-02-25T23:13:55.183Z,13.67
2019-02-25T23:16:25.433Z,13.83
2019-02-25T23:18:54.487Z,13.73
2019-02-25T23:21:25.968Z,13.27
2019-02-25T23:23:55.839Z,13.67
2019-02-25T23:26:24.420Z,13.27
2019-02-25T23:28:55.475Z,13.47
2019-02-25T23:31:23.949Z,12.97
2019-02-25T23:33:53.672Z,14.17
2019-02-25T23:36:24.639Z,13.03
2019-02-25T23:38:54.846Z,14.03
2019-02-25T23:41:23.886Z,13.53
2019-02-25T23:43:52.935Z,13.43
2019-02-25T23:46:25.191Z,13.90
2019-02-25T23:48:52.614Z,14.17
2019-02-25T23:51:23.352Z,12.80
2019-02-25T23:53:53.555Z,12.30
2019-02-25T23:56:24.579Z,13.13
2019-02-25T23:58:54.019Z,13.97
